Time;durP1;ratioP1;P1;durP2;ratioP2;P2;SDS_P1;SDS_P2;PMS_P1;PMS_P2;Temp;Humidity;BMP_temperature;BMP_pressure;BME280_temperature;BME280_humidity;BME280_pressure;Samples;Min_cycle;Max_cycle;Signal;HPM_P1;HPM_P2
2021/09/02 00:01:24;;;;;;;16.63;12.52;;;14.60;99.90;;;;;;5056902;28;20025;-43
2021/09/02 00:03:49;;;;;;;20.98;12.95;;;14.50;99.90;;;;;;5066142;28;20453;-42
2021/09/02 00:06:15;;;;;;;16.85;12.20;;;14.50;99.90;;;;;;5050913;28;20017;-43
2021/09/02 00:08:40;;;;;;;20.20;13.73;;;14.50;99.90;;;;;;5062688;28;20078;-43
2021/09/02 00:11:06;;;;;;;18.50;13.00;;;14.50;99.90;;;;;;5058634;28;20024;-42
2021/09/02 00:13:31;;;;;;;18.80;12.85;;;14.50;99.90;;;;;;5058294;28;20166;-42
2021/09/02 00:15:57;;;;;;;17.35;12.57;;;14.50;99.90;;;;;;5068465;28;20033;-44
2021/09/02 00:18:22;;;;;;;17.17;12.73;;;14.50;99.90;;;;;;5049814;28;20052;-42
2021/09/02 00:20:48;;;;;;;18.40;12.57;;;14.50;99.90;;;;;;5066006;28;20393;-45
2021/09/02 00:23:13;;;;;;;22.58;13.38;;;14.50;99.90;;;;;;5060317;28;20016;-42
2021/09/02 00:25:39;;;;;;;15.32;12.00;;;14.50;99.90;;;;;;5061787;28;20023;-42
2021/09/02 00:28:04;;;;;;;16.77;12.07;;;14.40;99.90;;;;;;5065086;28;20032;-42
2021/09/02 00:30:30;;;;;;;20.90;14.63;;;14.40;99.90;;;;;;5061047;28;20024;-43
2021/09/02 00:32:55;;;;;;;18.50;12.40;;;14.40;99.90;;;;;;5069583;28;20479;-43
2021/09/02 00:35:21;;;;;;;17.05;12.10;;;14.30;99.90;;;;;;5050300;28;20033;-43
2021/09/02 00:37:46;;;;;;;16.65;12.02;;;14.30;99.90;;;;;;5064637;28;20146;-42
2021/09/02 00:40:12;;;;;;;16.90;11.80;;;14.20;99.90;;;;;;5062601;28;20031;-44
2021/09/02 00:42:37;;;;;;;15.82;11.80;;;14.10;99.90;;;;;;5059882;28;20016;-45
2021/09/02 00:45:03;;;;;;;17.55;11.55;;;14.10;99.90;;;;;;5069248;28;20083;-42
2021/09/02 00:47:29;;;;;;;17.48;11.73;;;14.10;99.90;;;;;;5053640;28;20208;-41
2021/09/02 00:49:55;;;;;;;20.08;13.18;;;14.00;99.90;;;;;;5067505;28;20025;-42
2021/09/02 00:52:25;;;;;;;20.23;13.32;;;14.00;99.90;;;;;;5054843;28;20024;-43
2021/09/02 00:54:54;;;;;;;23.65;14.77;;;14.00;99.90;;;;;;5059666;28;20052;-42
2021/09/02 00:57:22;;;;;;;21.05;14.65;;;14.00;99.90;;;;;;5061194;28;20024;-42
2021/09/02 00:59:48;;;;;;;29.88;15.32;;;14.00;99.90;;;;;;5060775;28;20462;-44
2021/09/02 01:02:14;;;;;;;23.95;15.43;;;14.00;99.90;;;;;;5067277;28;20375;-46
2021/09/02 01:04:40;;;;;;;21.35;15.57;;;14.00;99.90;;;;;;5060914;28;20013;-43
2021/09/02 01:07:06;;;;;;;28.30;17.50;;;14.00;99.90;;;;;;5068524;28;20032;-43
2021/09/02 01:09:33;;;;;;;20.10;13.38;;;14.00;99.90;;;;;;5059990;28;20025;-43
2021/09/02 01:11:58;;;;;;;18.08;13.60;;;14.00;99.90;;;;;;5068017;28;20020;-43
2021/09/02 01:14:24;;;;;;;31.58;17.83;;;14.00;99.90;;;;;;5053637;28;20032;-43
2021/09/02 01:16:50;;;;;;;23.35;15.90;;;13.90;99.90;;;;;;5060645;28;20150;-44
2021/09/02 01:19:20;;;;;;;20.48;15.07;;;13.90;99.90;;;;;;5067739;28;20025;-43
2021/09/02 01:21:47;;;;;;;20.83;13.60;;;13.90;99.90;;;;;;5053000;28;20566;-42
2021/09/02 01:24:12;;;;;;;27.02;15.35;;;13.80;99.90;;;;;;5068381;28;20052;-43
2021/09/02 01:26:39;;;;;;;24.02;15.40;;;13.80;99.90;;;;;;5048295;28;20056;-43
2021/09/02 01:29:07;;;;;;;24.23;15.27;;;13.70;99.90;;;;;;5051003;28;20060;-46
2021/09/02 01:31:32;;;;;;;25.50;15.38;;;13.80;99.90;;;;;;5063803;28;20098;-44
2021/09/02 01:33:58;;;;;;;26.35;15.77;;;13.80;99.90;;;;;;5062591;28;20029;-43
2021/09/02 01:36:23;;;;;;;25.95;15.43;;;13.70;99.90;;;;;;5058158;28;20035;-42
2021/09/02 01:38:49;;;;;;;25.90;15.90;;;13.70;99.90;;;;;;5048936;28;20386;-43
2021/09/02 01:41:14;;;;;;;21.75;15.68;;;13.70;99.90;;;;;;5040511;28;20045;-43
2021/09/02 01:43:40;;;;;;;27.17;16.05;;;13.70;99.90;;;;;;5047417;28;20028;-44
2021/09/02 01:46:06;;;;;;;28.00;16.17;;;13.60;99.90;;;;;;5047264;28;20036;-44
2021/09/02 01:48:35;;;;;;;20.00;14.10;;;13.70;99.90;;;;;;5040072;28;20097;-44
2021/09/02 01:51:01;;;;;;;30.48;17.02;;;13.60;99.90;;;;;;5038491;28;20033;-43
2021/09/02 01:53:27;;;;;;;29.70;17.08;;;13.60;99.90;;;;;;5051434;28;20041;-43
2021/09/02 01:55:53;;;;;;;28.80;16.13;;;13.60;99.90;;;;;;5046754;28;20088;-43
2021/09/02 01:58:18;;;;;;;21.63;15.68;;;13.60;99.90;;;;;;5049163;28;20036;-43
2021/09/02 02:00:44;;;;;;;20.30;14.57;;;13.50;99.90;;;;;;5064915;28;20016;-43
2021/09/02 02:03:10;;;;;;;25.08;16.88;;;13.50;99.90;;;;;;5056638;28;20411;-43
2021/09/02 02:05:35;;;;;;;25.98;16.83;;;13.50;99.90;;;;;;5063607;28;20025;-43
2021/09/02 02:08:01;;;;;;;26.25;15.85;;;13.50;99.90;;;;;;5063018;28;20101;-42
2021/09/02 02:10:28;;;;;;;21.63;16.10;;;13.50;99.90;;;;;;5050591;28;20040;-43
2021/09/02 02:12:59;;;;;;;22.35;16.15;;;13.50;99.90;;;;;;5064313;28;20062;-43
2021/09/02 02:15:27;;;;;;;24.02;15.68;;;13.50;99.90;;;;;;5050675;28;20244;-43
2021/09/02 02:17:53;;;;;;;26.85;15.52;;;13.40;99.90;;;;;;5063980;28;20066;-42
2021/09/02 02:20:18;;;;;;;24.35;14.55;;;13.50;99.90;;;;;;5061099;28;20062;-43
2021/09/02 02:22:45;;;;;;;21.38;14.50;;;13.40;99.90;;;;;;5064654;28;20032;-43
2021/09/02 02:25:12;;;;;;;20.02;14.52;;;13.40;99.90;;;;;;5038568;28;20027;-42
2021/09/02 02:27:38;;;;;;;23.25;14.93;;;13.40;99.90;;;;;;5042571;28;20033;-42
2021/09/02 02:30:06;;;;;;;22.75;15.70;;;13.30;99.90;;;;;;5035432;28;20028;-43
2021/09/02 02:32:32;;;;;;;18.42;14.15;;;13.40;99.90;;;;;;5042905;28;20394;-42
2021/09/02 02:34:57;;;;;;;25.00;15.52;;;13.30;99.90;;;;;;5040533;28;20035;-44
2021/09/02 02:37:23;;;;;;;23.05;14.63;;;13.30;99.90;;;;;;5041406;28;20025;-43
2021/09/02 02:39:48;;;;;;;22.63;14.43;;;13.30;99.90;;;;;;5040389;28;20103;-43
2021/09/02 02:42:14;;;;;;;25.58;14.48;;;13.30;99.90;;;;;;5043414;28;20027;-43
2021/09/02 02:44:40;;;;;;;22.05;13.98;;;13.30;99.90;;;;;;5041143;28;20037;-42
2021/09/02 02:47:07;;;;;;;21.40;14.57;;;13.20;99.90;;;;;;5036990;28;20031;-42
2021/09/02 02:49:33;;;;;;;26.90;16.13;;;13.20;99.90;;;;;;5042101;28;20565;-43
2021/09/02 02:51:59;;;;;;;21.85;14.60;;;13.20;99.90;;;;;;5042514;28;20036;-42
2021/09/02 02:54:24;;;;;;;22.50;14.57;;;13.10;99.90;;;;;;5050705;28;20017;-43
2021/09/02 02:56:50;;;;;;;27.33;16.48;;;13.20;99.90;;;;;;5035969;28;20025;-42
2021/09/02 02:59:15;;;;;;;19.88;14.32;;;13.10;99.90;;;;;;5047209;28;20204;-44
2021/09/02 03:01:41;;;;;;;32.47;17.00;;;13.20;99.90;;;;;;5034011;28;20017;-42
2021/09/02 03:04:06;;;;;;;22.20;15.63;;;13.20;99.90;;;;;;5048087;28;20103;-42
2021/09/02 03:06:32;;;;;;;22.50;14.65;;;13.20;99.90;;;;;;5036047;28;20048;-43
2021/09/02 03:08:59;;;;;;;22.88;15.43;;;13.10;99.90;;;;;;5055337;28;20153;-42
2021/09/02 03:11:25;;;;;;;20.02;15.15;;;13.10;99.90;;;;;;5066154;28;20039;-42
2021/09/02 03:13:50;;;;;;;24.55;14.88;;;13.10;99.90;;;;;;5052271;28;20033;-42
2021/09/02 03:16:16;;;;;;;31.17;17.95;;;13.10;99.90;;;;;;5058678;28;20052;-42
2021/09/02 03:18:41;;;;;;;27.23;16.40;;;13.10;99.90;;;;;;5064397;28;20463;-42
2021/09/02 03:21:07;;;;;;;20.38;15.48;;;13.10;99.90;;;;;;5058949;28;20040;-43
2021/09/02 03:23:33;;;;;;;20.88;14.75;;;13.10;99.90;;;;;;5067448;28;20033;-42
2021/09/02 03:25:59;;;;;;;20.90;13.57;;;13.10;99.90;;;;;;5056022;28;20390;-42
2021/09/02 03:28:24;;;;;;;20.70;14.38;;;13.00;99.90;;;;;;5060625;28;20020;-42
2021/09/02 03:30:50;;;;;;;22.15;13.95;;;13.00;99.90;;;;;;5062137;28;20064;-41
2021/09/02 03:33:15;;;;;;;21.58;15.32;;;13.00;99.90;;;;;;5058909;28;20496;-42
2021/09/02 03:35:41;;;;;;;43.95;19.63;;;13.00;99.90;;;;;;5067038;28;20109;-41
2021/09/02 03:38:07;;;;;;;28.63;18.85;;;13.00;99.90;;;;;;5047969;28;20402;-41
2021/09/02 03:40:32;;;;;;;30.92;17.90;;;13.00;99.90;;;;;;5062057;28;20028;-42
2021/09/02 03:42:58;;;;;;;29.48;17.42;;;13.00;99.90;;;;;;5054779;28;20021;-41
2021/09/02 03:45:23;;;;;;;27.70;17.55;;;13.00;99.90;;;;;;5061043;28;20107;-42
2021/09/02 03:47:50;;;;;;;22.88;16.38;;;13.00;99.90;;;;;;5052656;28;20511;-42
2021/09/02 03:50:17;;;;;;;29.65;16.67;;;13.00;99.90;;;;;;5059340;28;20021;-42
2021/09/02 03:52:43;;;;;;;28.50;16.60;;;13.00;99.90;;;;;;5059250;28;20241;-42
2021/09/02 03:55:09;;;;;;;28.67;17.58;;;13.00;99.90;;;;;;5050517;28;20021;-42
2021/09/02 03:57:35;;;;;;;32.85;19.52;;;13.00;99.90;;;;;;5049838;28;20151;-42
2021/09/02 04:00:01;;;;;;;36.70;19.98;;;13.00;99.90;;;;;;5044109;28;20037;-42
2021/09/02 04:02:27;;;;;;;39.08;20.85;;;13.00;99.90;;;;;;5060764;28;20070;-42
2021/09/02 04:04:53;;;;;;;32.15;18.83;;;13.00;99.90;;;;;;5069354;28;20028;-42
2021/09/02 04:07:18;;;;;;;48.47;21.77;;;13.00;99.90;;;;;;5050707;28;20329;-42
2021/09/02 04:09:44;;;;;;;34.65;21.30;;;13.00;99.90;;;;;;5067366;28;20025;-42
2021/09/02 04:12:09;;;;;;;36.97;20.58;;;12.90;99.90;;;;;;5060162;28;20020;-41
2021/09/02 04:14:35;;;;;;;35.72;21.27;;;12.90;99.90;;;;;;5061897;28;20401;-42
2021/09/02 04:17:00;;;;;;;41.10;21.77;;;12.90;99.90;;;;;;5065711;28;20040;-43
2021/09/02 04:19:26;;;;;;;40.60;24.08;;;12.90;99.90;;;;;;5061448;28;20021;-44
2021/09/02 04:21:51;;;;;;;37.60;22.40;;;12.90;99.90;;;;;;5070056;28;20025;-42
2021/09/02 04:24:17;;;;;;;42.08;23.58;;;13.00;99.90;;;;;;5053217;28;20032;-42
2021/09/02 04:26:43;;;;;;;34.92;23.45;;;12.90;99.90;;;;;;5057681;28;20032;-43
2021/09/02 04:29:10;;;;;;;43.75;24.17;;;13.00;99.90;;;;;;5046422;28;20042;-42
2021/09/02 04:31:36;;;;;;;34.65;22.77;;;13.00;99.90;;;;;;5060468;28;20028;-43
2021/09/02 04:34:01;;;;;;;37.83;24.13;;;13.00;99.90;;;;;;5055040;28;20033;-43
2021/09/02 04:36:27;;;;;;;37.88;23.92;;;13.00;99.90;;;;;;5060554;28;20020;-42
2021/09/02 04:38:52;;;;;;;39.63;24.98;;;13.00;99.90;;;;;;5060335;28;20064;-43
2021/09/02 04:41:18;;;;;;;47.67;26.63;;;13.00;99.90;;;;;;5060688;28;20071;-42
2021/09/02 04:43:43;;;;;;;37.28;25.35;;;13.00;99.90;;;;;;5069839;28;20560;-43
2021/09/02 04:46:11;;;;;;;35.88;24.02;;;13.00;99.90;;;;;;5054381;28;20077;-43
2021/09/02 04:48:38;;;;;;;36.88;23.30;;;13.00;99.90;;;;;;5053517;28;20410;-42
2021/09/02 04:51:22;;;;;;;38.90;23.40;;;13.00;99.90;;;;;;5046165;28;20467;-43
2021/09/02 04:53:47;;;;;;;41.80;27.17;;;13.10;99.90;;;;;;5053430;28;20550;-43
2021/09/02 04:56:13;;;;;;;38.80;24.33;;;13.10;99.90;;;;;;5043068;28;20103;-44
2021/09/02 04:58:39;;;;;;;50.47;25.25;;;13.10;99.90;;;;;;5060467;28;20073;-43
2021/09/02 05:01:05;;;;;;;35.70;24.35;;;13.10;99.90;;;;;;5049171;28;20196;-44
2021/09/02 05:03:31;;;;;;;30.98;22.67;;;13.10;99.90;;;;;;5063942;28;20032;-42
2021/09/02 05:05:57;;;;;;;31.00;21.38;;;13.10;99.90;;;;;;5058824;28;20059;-42
2021/09/02 05:08:23;;;;;;;27.40;20.92;;;13.10;99.90;;;;;;5062429;28;20060;-45
2021/09/02 05:10:50;;;;;;;28.40;20.33;;;13.20;99.90;;;;;;5063585;28;20032;-42
2021/09/02 05:13:17;;;;;;;28.27;20.60;;;13.20;99.90;;;;;;5061007;28;20485;-43
2021/09/02 05:15:42;;;;;;;27.42;20.20;;;13.20;99.90;;;;;;5068826;28;20033;-43
2021/09/02 05:18:08;;;;;;;31.92;22.45;;;13.20;99.90;;;;;;5062225;28;20550;-42
2021/09/02 05:20:34;;;;;;;26.83;21.73;;;13.30;99.90;;;;;;5060277;28;20024;-43
2021/09/02 05:22:59;;;;;;;30.38;22.48;;;13.20;99.90;;;;;;5055904;28;20417;-43
2021/09/02 05:25:25;;;;;;;29.52;20.42;;;13.20;99.90;;;;;;5052038;28;20036;-43
2021/09/02 05:27:50;;;;;;;31.08;21.15;;;13.30;99.90;;;;;;5045516;28;20033;-42
2021/09/02 05:30:16;;;;;;;38.35;21.33;;;13.30;99.90;;;;;;5053621;28;20101;-42
2021/09/02 05:32:42;;;;;;;27.13;20.10;;;13.30;99.90;;;;;;5045629;28;20033;-43
2021/09/02 05:35:08;;;;;;;25.98;19.35;;;13.40;99.90;;;;;;5049043;28;20093;-42
2021/09/02 05:37:34;;;;;;;25.80;19.92;;;13.40;99.90;;;;;;5053307;28;20033;-43
2021/09/02 05:39:59;;;;;;;24.80;18.33;;;13.40;99.90;;;;;;5045633;28;20367;-42
2021/09/02 05:42:25;;;;;;;31.65;22.25;;;13.40;99.90;;;;;;5049559;28;20029;-42
2021/09/02 05:44:51;;;;;;;32.75;21.65;;;13.40;99.90;;;;;;5046541;28;20048;-43
2021/09/02 05:47:16;;;;;;;29.17;20.50;;;13.40;99.90;;;;;;5051230;28;20138;-42
2021/09/02 05:49:42;;;;;;;42.65;20.83;;;13.40;99.90;;;;;;5052302;28;20110;-43
2021/09/02 05:52:07;;;;;;;23.40;17.13;;;13.50;99.90;;;;;;5042761;28;20520;-42
2021/09/02 05:54:33;;;;;;;30.10;19.83;;;13.60;99.90;;;;;;5056743;28;20320;-43
2021/09/02 05:56:58;;;;;;;24.67;17.80;;;13.60;99.90;;;;;;5028430;28;20487;-42
2021/09/02 05:59:24;;;;;;;21.23;16.95;;;13.60;99.90;;;;;;5034479;28;20108;-43
2021/09/02 06:01:49;;;;;;;31.25;20.27;;;13.60;99.90;;;;;;5033509;28;20030;-43
2021/09/02 06:04:15;;;;;;;27.50;18.05;;;13.70;99.90;;;;;;5038370;28;20510;-42
2021/09/02 06:06:41;;;;;;;28.20;19.30;;;13.70;99.90;;;;;;5046587;28;20040;-43
2021/09/02 06:09:09;;;;;;;23.25;16.48;;;13.70;99.90;;;;;;5052163;28;20021;-45
2021/09/02 06:11:35;;;;;;;28.02;18.65;;;13.80;99.90;;;;;;5049145;28;20549;-43
2021/09/02 06:14:01;;;;;;;28.95;18.55;;;13.80;99.90;;;;;;5044188;28;20099;-43
2021/09/02 06:16:26;;;;;;;23.13;16.90;;;13.90;99.90;;;;;;5054510;28;20024;-43
2021/09/02 06:18:52;;;;;;;25.33;17.20;;;13.90;99.90;;;;;;5048362;28;20116;-43
2021/09/02 06:21:18;;;;;;;21.17;16.02;;;14.00;99.90;;;;;;5058103;28;20363;-43
2021/09/02 06:23:43;;;;;;;22.23;17.48;;;14.10;99.90;;;;;;5062375;28;20120;-43
2021/09/02 06:26:09;;;;;;;28.80;17.73;;;14.10;99.90;;;;;;5058526;28;20390;-43
2021/09/02 06:28:34;;;;;;;26.70;18.88;;;14.20;99.90;;;;;;5066703;28;20504;-43
2021/09/02 06:31:00;;;;;;;23.58;17.05;;;14.20;99.90;;;;;;5051412;28;20024;-42
2021/09/02 06:33:25;;;;;;;26.67;17.55;;;14.40;99.90;;;;;;5061231;28;20111;-45
2021/09/02 06:35:51;;;;;;;25.50;18.23;;;14.30;99.90;;;;;;5056934;28;20521;-44
2021/09/02 06:38:17;;;;;;;22.83;16.95;;;14.40;99.90;;;;;;5058617;28;20156;-43
2021/09/02 06:40:42;;;;;;;24.73;17.70;;;14.50;99.90;;;;;;5067299;28;20024;-45
2021/09/02 06:43:08;;;;;;;22.98;17.13;;;14.60;99.90;;;;;;5063745;28;20516;-43
2021/09/02 06:45:33;;;;;;;25.92;15.45;;;14.70;99.90;;;;;;5050479;28;20028;-43
2021/09/02 06:47:59;;;;;;;23.15;16.55;;;14.80;99.90;;;;;;5065393;28;20068;-43
2021/09/02 06:50:25;;;;;;;22.05;15.70;;;14.90;99.90;;;;;;5056907;28;20021;-43
2021/09/02 06:52:50;;;;;;;23.67;18.48;;;15.00;99.90;;;;;;5064907;28;20227;-43
2021/09/02 06:55:16;;;;;;;21.95;15.95;;;15.10;99.90;;;;;;5056473;28;20064;-43
2021/09/02 06:57:41;;;;;;;21.85;15.35;;;15.20;99.90;;;;;;5040640;28;20028;-43
2021/09/02 07:00:09;;;;;;;24.05;16.73;;;15.20;99.90;;;;;;5024173;28;20352;-43
2021/09/02 07:02:35;;;;;;;22.42;16.25;;;15.30;99.90;;;;;;5048243;28;20027;-43
2021/09/02 07:05:02;;;;;;;24.10;15.18;;;15.40;99.90;;;;;;5065749;28;20016;-44
2021/09/02 07:07:27;;;;;;;21.58;15.13;;;15.40;99.90;;;;;;5056353;28;20028;-43
2021/09/02 07:09:52;;;;;;;17.77;12.20;;;15.40;99.90;;;;;;5058845;28;20090;-43
2021/09/02 07:12:18;;;;;;;21.27;13.70;;;15.40;99.90;;;;;;5067012;28;20041;-43
2021/09/02 07:14:44;;;;;;;21.15;14.20;;;15.40;99.90;;;;;;5061488;28;20332;-43
2021/09/02 07:17:09;;;;;;;21.88;14.82;;;15.40;99.90;;;;;;5058046;28;20159;-43
2021/09/02 07:19:35;;;;;;;17.65;14.05;;;15.40;99.90;;;;;;5066714;28;20291;-43
2021/09/02 07:22:00;;;;;;;20.20;14.63;;;15.40;99.90;;;;;;5060946;28;20029;-43
2021/09/02 07:24:26;;;;;;;37.80;26.10;;;15.40;99.90;;;;;;5060902;28;20506;-43
2021/09/02 07:26:51;;;;;;;16.70;12.80;;;15.40;99.90;;;;;;5061078;28;20063;-43
2021/09/02 07:29:17;;;;;;;24.73;14.40;;;15.30;99.90;;;;;;5049083;28;20036;-44
2021/09/02 07:32:03;;;;;;;15.77;12.32;;;15.30;99.90;;;;;;5049639;28;20108;-43
2021/09/02 07:34:28;;;;;;;18.35;13.02;;;15.20;99.90;;;;;;5038840;28;20041;-43
2021/09/02 07:36:55;;;;;;;20.60;12.77;;;15.20;99.90;;;;;;5026581;28;20042;-42
2021/09/02 07:39:21;;;;;;;19.77;14.30;;;15.30;99.90;;;;;;5044069;28;20040;-42
2021/09/02 07:41:46;;;;;;;20.50;14.52;;;15.30;99.90;;;;;;5043207;28;20506;-45
2021/09/02 07:44:12;;;;;;;19.88;13.00;;;15.30;99.90;;;;;;5058332;28;20053;-43
2021/09/02 07:46:37;;;;;;;19.55;12.68;;;15.30;99.90;;;;;;5036536;28;20108;-42
2021/09/02 07:49:03;;;;;;;14.13;10.32;;;15.50;99.90;;;;;;5055023;28;20434;-43
2021/09/02 07:51:29;;;;;;;21.35;13.10;;;15.70;99.90;;;;;;5039927;28;20445;-43
2021/09/02 07:53:54;;;;;;;15.55;10.88;;;15.80;99.90;;;;;;5042145;28;20024;-43
2021/09/02 07:56:20;;;;;;;18.88;12.20;;;16.00;99.90;;;;;;5044362;28;20475;-43
2021/09/02 07:58:45;;;;;;;28.33;13.45;;;16.10;99.90;;;;;;5041412;28;20086;-41
2021/09/02 08:01:12;;;;;;;17.45;11.45;;;16.20;99.90;;;;;;5043943;28;20396;-43
2021/09/02 08:03:39;;;;;;;17.20;10.00;;;16.20;99.90;;;;;;5043014;28;20025;-43
2021/09/02 08:06:04;;;;;;;20.70;13.52;;;16.30;99.90;;;;;;5042420;28;20120;-42
2021/09/02 08:08:30;;;;;;;16.52;9.90;;;16.40;99.90;;;;;;5041649;28;20151;-43
2021/09/02 08:10:56;;;;;;;13.80;10.45;;;16.50;99.90;;;;;;5043885;28;20457;-44
2021/09/02 08:13:22;;;;;;;20.30;11.55;;;16.50;99.90;;;;;;5042155;28;20107;-42
2021/09/02 08:15:47;;;;;;;15.10;10.10;;;16.60;99.90;;;;;;5046424;28;20530;-42
2021/09/02 08:18:13;;;;;;;26.48;10.45;;;16.60;99.90;;;;;;5038434;28;20037;-42
2021/09/02 08:20:39;;;;;;;18.52;9.52;;;16.60;99.90;;;;;;5045443;28;20022;-43
2021/09/02 08:23:04;;;;;;;17.25;10.48;;;16.70;99.90;;;;;;5043501;28;20021;-42
2021/09/02 08:25:30;;;;;;;17.38;10.60;;;16.70;99.90;;;;;;5039949;28;20029;-43
2021/09/02 08:27:57;;;;;;;20.23;11.30;;;16.70;99.90;;;;;;5045783;28;20029;-43
2021/09/02 08:30:25;;;;;;;16.02;9.70;;;16.80;99.90;;;;;;5039327;28;20079;-44
2021/09/02 08:32:51;;;;;;;14.90;10.00;;;16.80;99.90;;;;;;5040309;28;20092;-43
2021/09/02 08:35:26;;;;;;;13.68;9.15;;;16.90;99.90;;;;;;5045607;28;20029;-45
2021/09/02 08:37:57;;;;;;;16.08;9.13;;;17.00;99.90;;;;;;5040523;28;20363;-45
2021/09/02 08:40:25;;;;;;;17.63;8.55;;;17.00;99.90;;;;;;5042831;28;20030;-43
2021/09/02 08:42:54;;;;;;;12.95;7.93;;;17.20;99.90;;;;;;5043877;28;20028;-43
2021/09/02 08:45:19;;;;;;;15.52;8.15;;;17.20;99.90;;;;;;5040162;28;20021;-43
2021/09/02 08:47:47;;;;;;;14.20;7.20;;;17.30;99.90;;;;;;5044465;28;20024;-44
2021/09/02 08:50:15;;;;;;;15.90;7.90;;;17.40;99.90;;;;;;5039143;28;20032;-43
2021/09/02 08:52:41;;;;;;;12.82;7.32;;;17.60;99.90;;;;;;5044951;28;20028;-45
2021/09/02 08:55:07;;;;;;;13.88;7.05;;;17.70;99.90;;;;;;5042291;28;20025;-43
2021/09/02 08:57:33;;;;;;;18.23;8.02;;;18.00;99.90;;;;;;5036832;28;20097;-42
2021/09/02 08:59:58;;;;;;;10.95;6.70;;;18.10;99.90;;;;;;5048195;28;20109;-43
2021/09/02 09:02:30;;;;;;;11.98;7.38;;;18.30;99.90;;;;;;5040439;28;20049;-44
2021/09/02 09:05:10;;;;;;;14.63;7.18;;;18.20;99.90;;;;;;5039404;28;20245;-44
2021/09/02 09:07:38;;;;;;;12.82;7.25;;;18.20;99.90;;;;;;5039644;28;20149;-44
2021/09/02 09:10:15;;;;;;;18.08;9.27;;;18.10;99.90;;;;;;5037297;28;20599;-43
2021/09/02 09:12:45;;;;;;;21.85;7.72;;;18.20;99.90;;;;;;5035636;28;20022;-44
2021/09/02 09:15:18;;;;;;;11.07;6.85;;;18.20;99.90;;;;;;5051282;28;20032;-44
2021/09/02 09:17:45;;;;;;;13.45;7.05;;;18.20;99.90;;;;;;5048026;28;20091;-44
2021/09/02 09:20:11;;;;;;;14.25;7.25;;;18.20;99.90;;;;;;5061733;28;20051;-43
2021/09/02 09:22:36;;;;;;;12.18;7.68;;;18.20;99.90;;;;;;5071050;28;20060;-42
2021/09/02 09:25:08;;;;;;;13.57;7.10;;;18.20;99.90;;;;;;5054204;28;20033;-43
2021/09/02 09:27:48;;;;;;;19.13;8.13;;;18.20;99.90;;;;;;5062027;28;20021;-42
2021/09/02 09:30:19;;;;;;;14.10;7.60;;;18.20;99.90;;;;;;5063618;28;20043;-43
2021/09/02 09:32:49;;;;;;;14.93;7.28;;;18.10;99.90;;;;;;5068087;28;20031;-43
2021/09/02 09:35:18;;;;;;;15.10;7.97;;;18.10;99.90;;;;;;5064658;28;20021;-42
2021/09/02 09:37:45;;;;;;;15.73;8.48;;;18.10;99.90;;;;;;5066754;28;20039;-43
2021/09/02 09:40:19;;;;;;;20.63;8.65;;;18.10;99.90;;;;;;5062989;28;20435;-42
2021/09/02 09:42:56;;;;;;;18.05;8.23;;;18.00;99.90;;;;;;5053382;28;20501;-42
2021/09/02 09:45:36;;;;;;;15.88;8.55;;;18.00;99.90;;;;;;5069159;28;20446;-42
2021/09/02 09:48:01;;;;;;;15.20;8.65;;;18.00;99.90;;;;;;5051856;28;20383;-42
2021/09/02 09:50:27;;;;;;;19.33;9.18;;;18.00;99.90;;;;;;5063773;28;20040;-42
2021/09/02 09:52:52;;;;;;;27.63;9.18;;;18.10;99.90;;;;;;5053856;28;20111;-42
2021/09/02 09:55:18;;;;;;;17.38;9.15;;;18.20;99.90;;;;;;5049101;28;20033;-42
2021/09/02 09:57:46;;;;;;;14.73;8.38;;;18.20;99.90;;;;;;5040956;28;20029;-43
2021/09/02 10:00:14;;;;;;;19.73;9.68;;;18.20;99.90;;;;;;5060919;28;20055;-43
2021/09/02 10:02:42;;;;;;;21.83;9.68;;;18.30;99.90;;;;;;5069116;28;20013;-42
2021/09/02 10:05:13;;;;;;;22.25;9.40;;;18.30;99.90;;;;;;5062394;28;20103;-43
2021/09/02 10:07:42;;;;;;;19.45;9.65;;;18.30;99.90;;;;;;5038515;28;20031;-43
2021/09/02 10:10:10;;;;;;;13.82;8.20;;;18.30;99.90;;;;;;5043073;28;20029;-42
2021/09/02 10:12:36;;;;;;;13.32;7.50;;;18.40;99.90;;;;;;5030122;28;20136;-42
2021/09/02 10:15:12;;;;;;;14.15;7.88;;;18.60;99.90;;;;;;5060422;28;20116;-43
2021/09/02 10:17:39;;;;;;;16.33;7.82;;;18.60;99.90;;;;;;5069535;28;20039;-43
2021/09/02 10:20:21;;;;;;;12.57;8.25;;;18.50;99.90;;;;;;5069728;28;20086;-43
2021/09/02 10:22:49;;;;;;;17.98;8.77;;;18.70;99.90;;;;;;5057255;28;20105;-44
2021/09/02 10:25:29;;;;;;;14.85;8.40;;;18.70;99.90;;;;;;5069112;28;20048;-43
2021/09/02 10:28:17;;;;;;;;;;;18.90;99.90;;;;;;5058075;28;20035;-42
2021/09/02 10:30:45;;;;;;;17.90;9.20;;;18.80;99.90;;;;;;5068767;28;19905;-43
2021/09/02 10:33:36;;;;;;;19.05;8.73;;;18.80;99.90;;;;;;5057744;28;20024;-43
2021/09/02 10:36:23;;;;;;;;;;;18.80;99.90;;;;;;5069284;28;20028;-42
2021/09/02 10:38:56;;;;;;;16.10;8.52;;;19.00;99.90;;;;;;5050751;28;19979;-43
2021/09/02 10:41:37;;;;;;;17.95;8.27;;;19.10;99.90;;;;;;5061925;28;20389;-42
2021/09/02 10:44:04;;;;;;;20.77;9.70;;;19.40;99.90;;;;;;5053170;28;20018;-43
2021/09/02 10:46:30;;;;;;;14.43;8.20;;;19.40;99.90;;;;;;5060632;28;20021;-43
2021/09/02 10:49:10;;;;;;;21.15;8.65;;;19.60;99.90;;;;;;5056970;28;20114;-43
2021/09/02 10:51:37;;;;;;;14.53;8.10;;;19.90;99.90;;;;;;5061477;28;20059;-44
2021/09/02 10:54:07;;;;;;;14.90;8.43;;;20.30;99.90;;;;;;5058220;28;20037;-43
2021/09/02 10:56:54;;;;;;;19.48;7.65;;;20.90;99.90;;;;;;5059196;28;20028;-43
2021/09/02 10:59:45;;;;;;;12.90;7.32;;;22.20;99.90;;;;;;5029733;28;20033;-44
2021/09/02 11:02:17;;;;;;;13.52;6.97;;;22.30;99.90;;;;;;5046688;28;20049;-44
2021/09/02 11:04:56;;;;;;;13.73;6.38;;;22.40;99.90;;;;;;5029796;28;20018;-43
2021/09/02 11:07:44;;;;;;;11.23;6.82;;;22.30;99.90;;;;;;5050364;28;20025;-43
2021/09/02 11:10:19;;;;;;;17.00;7.53;;;22.30;99.90;;;;;;5029911;28;20104;-45
2021/09/02 11:12:57;;;;;;;14.23;7.57;;;22.00;99.90;;;;;;5053848;28;20037;-42
2021/09/02 11:15:24;;;;;;;9.95;7.07;;;21.60;99.90;;;;;;5067931;28;20031;-43
2021/09/02 11:17:57;;;;;;;13.93;7.20;;;21.30;99.90;;;;;;5055269;28;20025;-43
2021/09/02 11:20:29;;;;;;;14.45;7.75;;;21.30;99.90;;;;;;5062785;28;20413;-43
2021/09/02 11:23:09;;;;;;;14.68;7.47;;;21.40;99.90;;;;;;5061036;28;20016;-45
2021/09/02 11:25:48;;;;;;;14.10;6.55;;;21.40;99.90;;;;;;5060687;28;20481;-43
2021/09/02 11:28:18;;;;;;;15.27;7.57;;;21.50;99.90;;;;;;5049837;28;20024;-44
2021/09/02 11:30:43;;;;;;;17.42;7.07;;;21.30;99.90;;;;;;5055918;28;20025;-43
2021/09/02 11:33:09;;;;;;;12.18;7.28;;;21.20;99.90;;;;;;5042827;28;20051;-43
2021/09/02 11:35:36;;;;;;;13.48;7.97;;;21.10;99.90;;;;;;5046653;28;20359;-43
2021/09/02 11:38:02;;;;;;;17.75;7.93;;;20.90;99.90;;;;;;5041915;28;20026;-46
2021/09/02 11:40:30;;;;;;;10.82;6.38;;;20.80;99.90;;;;;;5057833;28;20020;-45
2021/09/02 11:42:57;;;;;;;18.33;7.78;;;20.80;99.90;;;;;;5066464;28;20501;-43
2021/09/02 11:45:25;;;;;;;18.35;7.82;;;20.80;99.90;;;;;;5048993;28;20364;-44
2021/09/02 11:47:52;;;;;;;16.15;7.60;;;20.70;99.90;;;;;;5064171;28;20031;-44
2021/09/02 11:50:19;;;;;;;16.27;8.55;;;20.90;99.90;;;;;;5052820;28;20021;-45
2021/09/02 11:52:47;;;;;;;16.30;7.45;;;21.00;99.90;;;;;;5063975;28;20052;-44
2021/09/02 11:55:26;;;;;;;18.30;8.38;;;21.10;99.90;;;;;;5054507;28;20017;-44
2021/09/02 11:57:59;;;;;;;9.75;7.10;;;20.80;99.90;;;;;;5065505;28;20382;-44
2021/09/02 12:00:26;;;;;;;17.85;8.02;;;20.90;99.90;;;;;;5055487;28;20454;-45
2021/09/02 12:02:58;;;;;;;16.02;8.15;;;21.00;99.90;;;;;;5065213;28;20025;-45
2021/09/02 12:05:26;;;;;;;15.10;7.78;;;20.90;99.90;;;;;;5063950;28;20017;-43
2021/09/02 12:07:54;;;;;;;10.68;7.53;;;20.90;99.90;;;;;;5058066;28;20025;-42
2021/09/02 12:10:21;;;;;;;16.13;7.53;;;21.00;99.90;;;;;;5067231;28;20032;-43
2021/09/02 12:12:48;;;;;;;13.35;7.20;;;21.30;99.90;;;;;;5058996;28;20029;-45
2021/09/02 12:15:26;;;;;;;14.48;7.57;;;21.60;99.90;;;;;;5070386;28;20134;-43
2021/09/02 12:18:09;;;;;;;10.05;6.65;;;21.80;99.90;;;;;;5054218;28;20021;-44
2021/09/02 12:20:37;;;;;;;10.65;6.88;;;21.90;99.90;;;;;;5062320;28;20470;-43
2021/09/02 12:23:19;;;;;;;10.93;6.40;;;21.90;99.90;;;;;;5058722;28;20408;-43
2021/09/02 12:25:59;;;;;;;12.90;6.97;;;21.90;99.90;;;;;;5060950;28;20016;-44
2021/09/02 12:28:36;;;;;;;11.38;7.10;;;22.00;99.90;;;;;;5068639;28;20033;-47
2021/09/02 12:31:23;;;;;;;11.93;7.05;;;21.90;99.90;;;;;;5059476;28;20025;-44
2021/09/02 12:34:11;;;;;;;18.33;6.78;;;21.90;99.90;;;;;;5040126;28;20033;-43